createdAt,value
2023-02-16T00:01:10.763Z,4.13
2023-02-16T00:03:37.501Z,4.08
2023-02-16T00:06:04.135Z,4.13
2023-02-16T00:08:30.798Z,3.92
2023-02-16T00:10:57.417Z,4.01
2023-02-16T00:13:24.050Z,3.98
2023-02-16T00:15:50.775Z,3.98
2023-02-16T00:18:17.545Z,3.96
2023-02-16T00:20:44.210Z,4.08
2023-02-16T00:23:10.828Z,4.08
2023-02-16T00:25:37.491Z,4.06
2023-02-16T00:28:04.160Z,4.01
2023-02-16T00:30:30.841Z,4.05
2023-02-16T00:32:57.529Z,3.91
2023-02-16T00:35:24.195Z,3.91
2023-02-16T00:37:50.818Z,3.89
2023-02-16T00:40:17.467Z,4.00
2023-02-16T00:42:44.089Z,3.93
2023-02-16T00:45:10.731Z,3.89
2023-02-16T00:47:37.448Z,3.75
2023-02-16T00:50:04.094Z,3.61
2023-02-16T00:52:30.776Z,3.79
2023-02-16T00:54:57.448Z,3.79
2023-02-16T00:57:24.301Z,3.87
2023-02-16T00:59:51.045Z,3.69
2023-02-16T01:02:17.764Z,3.62
2023-02-16T01:04:44.475Z,3.39
2023-02-16T01:07:11.189Z,3.54
2023-02-16T01:09:37.867Z,3.59
2023-02-16T01:12:04.547Z,3.72
2023-02-16T01:14:31.217Z,3.83
2023-02-16T01:16:57.856Z,3.79
2023-02-16T01:19:24.505Z,3.88
2023-02-16T01:21:51.174Z,3.72
2023-02-16T01:24:17.866Z,3.62
2023-02-16T01:26:44.498Z,3.42
2023-02-16T01:29:11.153Z,3.49
2023-02-16T01:31:37.958Z,3.48
2023-02-16T01:34:04.773Z,3.36
2023-02-16T01:36:31.384Z,3.18
2023-02-16T01:38:58.103Z,3.13
2023-02-16T01:41:24.741Z,3.32
2023-02-16T01:43:51.381Z,3.39
2023-02-16T01:46:18.065Z,3.48
2023-02-16T01:48:44.699Z,3.26
2023-02-16T01:51:11.484Z,3.31
2023-02-16T01:53:38.136Z,3.28
2023-02-16T01:56:04.769Z,3.37
2023-02-16T01:58:31.448Z,3.39
2023-02-16T02:00:58.079Z,3.49
2023-02-16T02:03:24.737Z,3.45
2023-02-16T02:11:13.183Z,3.26
2023-02-16T02:13:39.815Z,2.86
2023-02-16T02:16:06.569Z,2.95
2023-02-16T02:18:33.260Z,3.12
2023-02-16T02:20:59.962Z,3.11
2023-02-16T02:23:26.639Z,3.24
2023-02-16T02:25:53.311Z,3.32
2023-02-16T02:28:19.950Z,3.30
2023-02-16T02:30:46.630Z,3.23
2023-02-16T02:33:13.306Z,2.98
2023-02-16T02:35:39.935Z,2.80
2023-02-16T02:38:06.608Z,2.73
2023-02-16T02:40:33.295Z,2.67
2023-02-16T02:42:59.974Z,2.57
2023-02-16T02:45:26.602Z,2.47
2023-02-16T02:47:53.253Z,2.74
2023-02-16T02:50:19.996Z,2.81
2023-02-16T02:52:46.685Z,2.82
2023-02-16T02:55:13.370Z,3.00
2023-02-16T02:57:40.057Z,3.05
2023-02-16T03:00:06.772Z,3.00
2023-02-16T03:02:33.415Z,3.05
2023-02-16T03:05:00.106Z,3.08
2023-02-16T03:07:26.767Z,3.07
2023-02-16T03:09:53.478Z,3.06
2023-02-16T03:12:20.118Z,2.90
2023-02-16T03:14:46.825Z,2.82
2023-02-16T03:17:13.558Z,2.87
2023-02-16T03:19:40.193Z,2.88
2023-02-16T03:22:06.881Z,2.89
2023-02-16T03:24:33.546Z,2.98
2023-02-16T03:27:00.238Z,2.75
2023-02-16T03:29:26.907Z,2.67
2023-02-16T03:31:53.589Z,2.80
2023-02-16T03:34:20.290Z,2.90
2023-02-16T03:36:46.951Z,2.78
2023-02-16T03:39:13.595Z,2.76
2023-02-16T03:41:40.196Z,2.73
2023-02-16T03:44:06.906Z,2.82
2023-02-16T03:46:33.576Z,2.85
2023-02-16T03:49:00.261Z,2.80
2023-02-16T03:51:26.933Z,2.82
2023-02-16T03:53:53.576Z,2.87
2023-02-16T03:56:20.231Z,2.78
2023-02-16T03:58:46.904Z,2.90
2023-02-16T04:01:13.632Z,2.81
2023-02-16T04:03:40.294Z,2.83
2023-02-16T04:06:06.993Z,2.62
2023-02-16T04:08:33.632Z,2.52
2023-02-16T04:11:00.319Z,2.58
2023-02-16T04:13:26.968Z,2.67
2023-02-16T04:15:53.596Z,2.81
2023-02-16T04:18:20.265Z,2.63
2023-02-16T04:20:47.002Z,2.65
2023-02-16T04:23:13.663Z,2.52
2023-02-16T04:25:40.543Z,2.55
2023-02-16T04:28:07.228Z,2.61
2023-02-16T04:30:34.019Z,2.75
2023-02-16T04:33:00.736Z,2.71
2023-02-16T04:35:27.372Z,2.44
2023-02-16T04:37:54.032Z,2.57
2023-02-16T04:40:20.715Z,2.61
2023-02-16T04:42:47.416Z,2.57
2023-02-16T04:45:14.103Z,2.58
2023-02-16T04:47:40.746Z,2.39
2023-02-16T04:50:07.401Z,2.53
2023-02-16T04:52:34.017Z,2.58
2023-02-16T04:55:00.653Z,2.49
2023-02-16T04:57:27.268Z,2.44
2023-02-16T04:59:53.941Z,2.47
2023-02-16T05:02:20.605Z,2.53
2023-02-16T05:04:47.447Z,2.47
2023-02-16T05:07:14.118Z,2.48
2023-02-16T05:09:40.776Z,2.47
2023-02-16T05:12:07.445Z,2.37
2023-02-16T05:14:34.090Z,2.45
2023-02-16T05:17:00.744Z,2.42
2023-02-16T05:19:27.460Z,2.35
2023-02-16T05:21:54.050Z,2.35
2023-02-16T05:24:20.766Z,2.40
2023-02-16T05:26:47.439Z,2.37
2023-02-16T05:29:14.087Z,2.55
2023-02-16T05:31:40.813Z,2.53
2023-02-16T05:34:07.453Z,2.26
2023-02-16T05:36:34.216Z,2.38
2023-02-16T05:39:00.995Z,2.25
2023-02-16T05:41:27.678Z,2.29
2023-02-16T05:43:54.284Z,2.46
2023-02-16T05:46:20.951Z,2.51
2023-02-16T05:48:47.627Z,2.19
2023-02-16T05:51:15.328Z,2.30
2023-02-16T05:53:41.961Z,2.42
2023-02-16T05:56:08.619Z,2.48
2023-02-16T05:58:35.288Z,2.48
2023-02-16T06:01:02.158Z,2.42
2023-02-16T06:03:28.998Z,2.49
2023-02-16T06:05:55.656Z,2.54
2023-02-16T06:08:22.254Z,2.64
2023-02-16T06:10:48.874Z,2.68
2023-02-16T06:13:15.481Z,2.71
2023-02-16T06:15:42.245Z,2.64
2023-02-16T06:18:08.917Z,2.75
2023-02-16T06:20:35.594Z,2.54
2023-02-16T06:23:02.206Z,2.47
2023-02-16T06:25:28.882Z,2.55
2023-02-16T06:27:55.554Z,2.55
2023-02-16T06:30:22.255Z,2.70
2023-02-16T06:32:48.965Z,2.79
2023-02-16T06:35:15.650Z,2.93
2023-02-16T06:37:42.295Z,2.88
2023-02-16T06:40:08.953Z,2.93
2023-02-16T06:42:35.615Z,2.99
2023-02-16T06:45:02.219Z,3.05
2023-02-16T06:47:28.921Z,3.20
2023-02-16T06:49:55.527Z,3.28
2023-02-16T06:52:22.341Z,3.25
2023-02-16T06:54:49.014Z,3.31
2023-02-16T06:57:15.664Z,3.33
2023-02-16T06:59:42.278Z,3.44
2023-02-16T07:02:09.040Z,3.38
2023-02-16T07:04:35.750Z,3.48
2023-02-16T07:07:02.445Z,3.50
2023-02-16T07:09:29.117Z,3.59
2023-02-16T07:11:55.765Z,3.68
2023-02-16T07:14:22.383Z,3.88
2023-02-16T07:16:49.002Z,3.91
2023-02-16T07:19:15.644Z,3.99
2023-02-16T07:21:42.313Z,4.03
2023-02-16T07:24:08.974Z,4.14
2023-02-16T07:26:35.625Z,4.32
2023-02-16T07:29:02.344Z,4.29
2023-02-16T07:31:29.149Z,4.36
2023-02-16T07:33:55.905Z,4.47
2023-02-16T07:36:22.579Z,4.73
2023-02-16T07:38:49.269Z,4.63
2023-02-16T07:41:15.870Z,4.88
2023-02-16T07:43:42.538Z,5.15
2023-02-16T07:46:09.276Z,5.34
2023-02-16T07:48:35.954Z,5.49
2023-02-16T07:51:03.215Z,5.53
2023-02-16T07:53:30.078Z,5.72
2023-02-16T07:55:56.754Z,5.81
2023-02-16T07:58:23.385Z,5.90
2023-02-16T08:00:50.058Z,5.95
2023-02-16T08:03:16.846Z,6.08
2023-02-16T08:05:43.546Z,6.20
2023-02-16T08:08:10.217Z,6.24
2023-02-16T08:10:36.898Z,6.47
2023-02-16T08:13:03.581Z,6.66
2023-02-16T08:15:30.202Z,6.84
2023-02-16T08:17:56.867Z,6.97
2023-02-16T08:20:28.373Z,7.22
2023-02-16T08:23:02.064Z,7.33
2023-02-16T08:25:28.700Z,7.53
2023-02-16T08:27:55.394Z,7.61
2023-02-16T08:30:22.035Z,7.71
2023-02-16T08:32:48.715Z,7.71
2023-02-16T08:35:15.359Z,7.69
2023-02-16T08:37:42.050Z,7.84
2023-02-16T08:40:08.670Z,8.10
2023-02-16T08:42:35.388Z,8.31
2023-02-16T08:45:02.039Z,8.42
2023-02-16T08:47:28.670Z,8.45
2023-02-16T08:49:55.310Z,8.58
2023-02-16T08:52:21.934Z,8.85
2023-02-16T08:54:48.613Z,8.87
2023-02-16T08:57:15.225Z,9.03
2023-02-16T08:59:41.896Z,8.62
2023-02-16T09:02:08.538Z,8.87
2023-02-16T09:04:35.357Z,9.21
2023-02-16T09:07:02.020Z,8.66
2023-02-16T09:09:28.731Z,8.92
2023-02-16T09:11:55.415Z,9.06
2023-02-16T09:14:22.029Z,9.05
2023-02-16T09:16:48.810Z,9.07
2023-02-16T09:19:15.453Z,9.06
2023-02-16T09:21:42.088Z,9.15
2023-02-16T09:24:08.764Z,9.29
2023-02-16T09:26:35.424Z,8.99
2023-02-16T09:29:02.281Z,9.41
2023-02-16T09:31:29.134Z,10.27
2023-02-16T09:33:55.817Z,10.84
2023-02-16T09:36:22.427Z,11.32
2023-02-16T09:38:49.095Z,11.44
2023-02-16T09:41:15.818Z,11.22
2023-02-16T09:43:42.421Z,10.80
2023-02-16T09:46:09.139Z,10.74
2023-02-16T09:48:35.745Z,10.37
2023-02-16T09:51:02.368Z,10.32
2023-02-16T09:53:29.031Z,11.19
2023-02-16T09:55:55.705Z,11.64
2023-02-16T09:58:22.366Z,11.53
2023-02-16T10:00:49.045Z,11.98
2023-02-16T10:03:15.705Z,12.44
2023-02-16T10:05:42.386Z,12.50
2023-02-16T10:08:09.078Z,12.63
2023-02-16T10:10:35.745Z,12.55
2023-02-16T10:13:02.627Z,11.93
2023-02-16T10:15:29.334Z,12.45
2023-02-16T10:17:56.695Z,11.97
2023-02-16T10:20:23.419Z,12.61
2023-02-16T10:22:50.122Z,12.55
2023-02-16T10:25:16.841Z,12.38
2023-02-16T10:27:43.519Z,12.99
2023-02-16T10:30:10.263Z,13.42
2023-02-16T10:32:39.427Z,13.88
2023-02-16T10:35:10.365Z,14.04
2023-02-16T10:37:37.014Z,13.85
2023-02-16T10:40:03.685Z,13.86
2023-02-16T10:42:30.322Z,14.36
2023-02-16T10:44:56.974Z,13.37
2023-02-16T10:47:23.653Z,13.37
2023-02-16T10:49:50.342Z,14.11
2023-02-16T10:52:17.014Z,14.82
2023-02-16T10:54:43.709Z,15.21
2023-02-16T10:57:10.379Z,15.44
2023-02-16T10:59:37.023Z,15.78
2023-02-16T11:02:03.666Z,15.92
2023-02-16T11:04:30.327Z,15.87
2023-02-16T11:06:57.074Z,16.06
2023-02-16T11:09:23.741Z,15.38
2023-02-16T11:11:50.386Z,15.16
2023-02-16T11:14:17.030Z,15.80
2023-02-16T11:16:43.672Z,16.42
2023-02-16T11:19:10.338Z,16.26
2023-02-16T11:21:36.944Z,16.53
2023-02-16T11:24:04.562Z,16.79
2023-02-16T11:26:31.195Z,16.32
2023-02-16T11:28:57.857Z,16.69
2023-02-16T11:31:24.509Z,16.11
2023-02-16T11:33:51.162Z,15.37
2023-02-16T11:36:17.781Z,16.38
2023-02-16T11:38:44.427Z,17.31
2023-02-16T11:41:11.132Z,17.57
2023-02-16T11:43:37.846Z,16.54
2023-02-16T11:46:04.761Z,16.33
2023-02-16T11:48:31.634Z,16.40
2023-02-16T11:50:58.303Z,16.56
2023-02-16T11:53:24.976Z,15.66
2023-02-16T11:55:51.589Z,16.90
2023-02-16T11:58:18.277Z,17.16
2023-02-16T12:00:44.897Z,16.91
2023-02-16T12:03:11.522Z,17.25
2023-02-16T12:05:38.159Z,16.20
2023-02-16T12:08:04.829Z,16.46
2023-02-16T12:10:31.494Z,17.25
2023-02-16T12:12:58.174Z,17.19
2023-02-16T12:15:26.779Z,16.46
2023-02-16T12:17:53.495Z,16.20
2023-02-16T12:20:20.110Z,15.62
2023-02-16T12:22:46.817Z,15.47
2023-02-16T12:25:13.508Z,16.14
2023-02-16T12:27:40.138Z,17.43
2023-02-16T12:30:06.866Z,17.91
2023-02-16T12:32:33.528Z,17.17
2023-02-16T12:35:00.219Z,17.75
2023-02-16T12:37:26.900Z,18.48
2023-02-16T12:39:53.515Z,18.75
2023-02-16T12:42:20.148Z,17.89
2023-02-16T12:44:46.851Z,17.35
2023-02-16T12:47:13.635Z,18.10
2023-02-16T12:49:40.318Z,18.78
2023-02-16T12:52:06.931Z,18.67
2023-02-16T12:54:33.550Z,17.53
2023-02-16T12:57:00.231Z,18.22
2023-02-16T12:59:26.903Z,18.54
2023-02-16T13:01:53.545Z,17.64
2023-02-16T13:04:20.210Z,18.30
2023-02-16T13:06:46.911Z,18.63
2023-02-16T13:09:13.547Z,18.97
2023-02-16T13:11:43.578Z,19.05
2023-02-16T13:14:10.215Z,19.48
2023-02-16T13:16:36.977Z,17.93
2023-02-16T13:19:03.674Z,17.65
2023-02-16T13:21:31.950Z,17.63
2023-02-16T13:24:01.769Z,17.37
2023-02-16T13:26:28.470Z,18.24
2023-02-16T13:28:55.319Z,18.85
2023-02-16T13:31:22.054Z,18.61
2023-02-16T13:33:48.744Z,19.25
2023-02-16T13:36:15.420Z,19.72
2023-02-16T13:38:42.055Z,19.40
2023-02-16T13:41:08.694Z,18.25
2023-02-16T13:43:35.370Z,17.78
2023-02-16T13:46:02.134Z,18.19
2023-02-16T13:48:28.871Z,18.53
2023-02-16T13:50:55.561Z,19.31
2023-02-16T13:53:22.235Z,19.76
2023-02-16T13:55:48.868Z,20.09
2023-02-16T13:58:15.527Z,19.36
2023-02-16T14:00:42.140Z,18.49
2023-02-16T14:03:11.922Z,18.32
2023-02-16T14:05:38.868Z,18.95
2023-02-16T14:08:05.557Z,19.62
2023-02-16T14:10:32.228Z,20.16
2023-02-16T14:12:58.884Z,20.26
2023-02-16T14:15:25.550Z,19.44
2023-02-16T14:17:52.206Z,19.04
2023-02-16T14:20:18.886Z,18.16
2023-02-16T14:22:45.511Z,17.52
2023-02-16T14:25:12.145Z,17.19
2023-02-16T14:27:38.795Z,17.48
2023-02-16T14:30:05.532Z,18.47
2023-02-16T14:32:32.276Z,18.92
2023-02-16T14:34:58.996Z,19.43
2023-02-16T14:37:25.903Z,19.72
2023-02-16T14:40:07.307Z,19.83
2023-02-16T14:42:34.851Z,19.83
2023-02-16T14:45:01.530Z,19.82
2023-02-16T14:47:28.215Z,19.11
2023-02-16T14:49:54.951Z,17.87
2023-02-16T14:52:21.595Z,16.95
2023-02-16T14:54:48.302Z,17.48
2023-02-16T14:57:14.998Z,18.04
2023-02-16T14:59:41.659Z,18.27
2023-02-16T15:02:08.373Z,18.36
2023-02-16T15:04:35.059Z,18.31
2023-02-16T15:07:01.707Z,18.20
2023-02-16T15:09:28.331Z,17.93
2023-02-16T15:11:54.974Z,17.76
2023-02-16T15:14:21.596Z,17.46
2023-02-16T15:16:48.354Z,17.45
2023-02-16T15:19:15.083Z,17.63
2023-02-16T15:21:41.696Z,17.54
2023-02-16T15:24:08.357Z,17.68
2023-02-16T15:26:34.966Z,17.75
2023-02-16T15:29:01.671Z,17.77
2023-02-16T15:31:28.430Z,17.72
2023-02-16T15:33:55.066Z,17.67
2023-02-16T15:36:21.731Z,17.54
2023-02-16T15:38:48.366Z,17.43
2023-02-16T15:41:15.032Z,17.35
2023-02-16T15:43:41.693Z,17.23
2023-02-16T15:46:08.485Z,17.07
2023-02-16T15:48:35.209Z,16.90
2023-02-16T15:51:01.883Z,16.74
2023-02-16T15:53:28.583Z,16.57
2023-02-16T15:55:55.303Z,16.25
2023-02-16T15:58:22.011Z,16.18
2023-02-16T16:00:48.696Z,16.09
2023-02-16T16:03:16.662Z,16.00
2023-02-16T16:05:43.367Z,15.84
2023-02-16T16:08:12.382Z,15.70
2023-02-16T16:10:39.002Z,15.56
2023-02-16T16:13:05.685Z,15.37
2023-02-16T16:15:32.310Z,15.08
2023-02-16T16:17:58.934Z,14.89
2023-02-16T16:20:25.577Z,14.74
2023-02-16T16:22:52.260Z,14.62
2023-02-16T16:25:18.898Z,14.48
2023-02-16T16:27:45.522Z,14.31
2023-02-16T16:30:12.222Z,14.32
2023-02-16T16:32:38.933Z,14.02
2023-02-16T16:35:05.623Z,14.01
2023-02-16T16:37:32.282Z,13.93
2023-02-16T16:39:58.982Z,13.93
2023-02-16T16:42:25.597Z,13.84
2023-02-16T16:44:52.214Z,13.79
2023-02-16T16:47:18.850Z,13.68
2023-02-16T16:49:45.522Z,13.45
2023-02-16T16:52:12.348Z,13.14
2023-02-16T16:54:39.020Z,13.03
2023-02-16T16:57:05.658Z,13.13
2023-02-16T16:59:32.283Z,13.08
2023-02-16T17:01:58.972Z,12.91
2023-02-16T17:04:25.661Z,12.84
2023-02-16T17:06:52.331Z,12.77
2023-02-16T17:09:18.960Z,12.56
2023-02-16T17:11:45.631Z,12.27
2023-02-16T17:14:12.305Z,12.38
2023-02-16T17:16:38.977Z,12.43
2023-02-16T17:19:05.694Z,12.18
2023-02-16T17:21:32.350Z,12.13
2023-02-16T17:23:59.019Z,11.83
2023-02-16T17:26:25.670Z,11.75
2023-02-16T17:28:52.456Z,11.83
2023-02-16T17:31:19.135Z,11.72
2023-02-16T17:33:45.809Z,11.70
2023-02-16T17:36:12.498Z,11.65
2023-02-16T17:38:39.156Z,11.55
2023-02-16T17:41:05.827Z,11.43
2023-02-16T17:43:32.458Z,11.23
2023-02-16T17:45:59.166Z,11.20
2023-02-16T17:48:27.995Z,11.22
2023-02-16T17:50:54.965Z,11.05
2023-02-16T17:53:22.182Z,11.04
2023-02-16T17:55:48.829Z,10.99
2023-02-16T17:58:15.450Z,10.86
2023-02-16T18:00:42.053Z,10.73
2023-02-16T18:03:08.776Z,10.71
2023-02-16T18:05:35.409Z,10.51
2023-02-16T18:08:02.059Z,10.40
2023-02-16T18:10:28.753Z,10.41
2023-02-16T18:12:55.381Z,10.05
2023-02-16T18:15:22.014Z,10.01
2023-02-16T18:17:48.685Z,10.07
2023-02-16T18:20:15.421Z,10.07
2023-02-16T18:22:42.090Z,10.15
2023-02-16T18:25:08.802Z,10.21
2023-02-16T18:27:35.521Z,10.10
2023-02-16T18:30:02.257Z,9.98
2023-02-16T18:32:28.945Z,9.94
2023-02-16T18:34:55.617Z,9.72
2023-02-16T18:37:22.224Z,9.64
2023-02-16T18:39:48.899Z,9.63
2023-02-16T18:42:15.618Z,9.66
2023-02-16T18:44:42.257Z,9.70
2023-02-16T18:47:08.848Z,9.68
2023-02-16T18:49:35.487Z,9.56
2023-02-16T18:52:02.119Z,9.56
2023-02-16T18:54:28.776Z,9.35
2023-02-16T18:56:55.474Z,9.32
2023-02-16T18:59:22.130Z,9.21
2023-02-16T19:01:48.772Z,9.19
2023-02-16T19:04:15.458Z,9.27
2023-02-16T19:06:42.181Z,9.23
2023-02-16T19:09:08.858Z,9.09
2023-02-16T19:11:35.504Z,9.04
2023-02-16T19:14:02.239Z,9.08
2023-02-16T19:16:28.907Z,9.05
2023-02-16T19:18:55.635Z,9.06
2023-02-16T19:21:22.261Z,8.97
2023-02-16T19:23:48.885Z,8.90
2023-02-16T19:26:15.586Z,8.99
2023-02-16T19:28:42.199Z,8.59
2023-02-16T19:31:09.487Z,8.51
2023-02-16T19:33:36.147Z,8.56
2023-02-16T19:36:03.084Z,8.62
2023-02-16T19:38:29.909Z,8.54
2023-02-16T19:40:56.560Z,8.43
2023-02-16T19:43:23.200Z,8.36
2023-02-16T19:45:49.825Z,8.45
2023-02-16T19:48:16.549Z,8.43
2023-02-16T19:50:43.249Z,8.34
2023-02-16T19:53:09.946Z,8.13
2023-02-16T19:55:36.543Z,8.22
2023-02-16T19:58:03.258Z,8.23
2023-02-16T20:00:29.928Z,8.36
2023-02-16T20:02:56.664Z,8.30
2023-02-16T20:05:23.408Z,8.18
2023-02-16T20:07:50.079Z,8.20
2023-02-16T20:10:16.781Z,8.22
2023-02-16T20:12:43.492Z,8.20
2023-02-16T20:15:10.320Z,8.12
2023-02-16T20:17:36.963Z,8.07
2023-02-16T20:20:03.641Z,8.05
2023-02-16T20:22:30.365Z,8.02
2023-02-16T20:24:57.024Z,8.00
2023-02-16T20:27:23.686Z,7.83
2023-02-16T20:29:50.332Z,7.73
2023-02-16T20:32:17.057Z,7.86
2023-02-16T20:34:43.754Z,7.86
2023-02-16T20:37:10.418Z,7.81
2023-02-16T20:39:37.018Z,7.61
2023-02-16T20:42:03.652Z,7.75
2023-02-16T20:44:30.301Z,7.73
2023-02-16T20:46:56.982Z,7.74
2023-02-16T20:49:23.668Z,7.70
2023-02-16T20:51:50.319Z,7.66
2023-02-16T20:54:16.978Z,7.46
2023-02-16T20:56:43.618Z,7.45
2023-02-16T20:59:10.242Z,7.48
2023-02-16T21:01:36.981Z,7.44
2023-02-16T21:04:03.734Z,7.25
2023-02-16T21:06:30.356Z,7.37
2023-02-16T21:08:56.987Z,7.36
2023-02-16T21:11:23.630Z,7.40
2023-02-16T21:13:50.372Z,7.31
2023-02-16T21:16:16.999Z,7.12
2023-02-16T21:18:43.677Z,6.89
2023-02-16T21:21:10.393Z,6.76
2023-02-16T21:23:37.065Z,6.91
2023-02-16T21:26:04.024Z,7.00
2023-02-16T21:28:30.847Z,7.03
2023-02-16T21:30:57.539Z,7.00
2023-02-16T21:33:24.177Z,6.95
2023-02-16T21:35:50.873Z,6.87
2023-02-16T21:38:17.557Z,6.86
2023-02-16T21:40:44.199Z,6.64
2023-02-16T21:43:10.821Z,6.53
2023-02-16T21:45:37.585Z,6.65
2023-02-16T21:48:04.245Z,6.78
2023-02-16T21:50:30.835Z,6.80
2023-02-16T21:52:57.459Z,6.70
2023-02-16T21:55:24.150Z,6.53
2023-02-16T21:57:50.797Z,6.64
2023-02-16T22:00:17.441Z,6.72
2023-02-16T22:02:44.036Z,6.65
2023-02-16T22:05:10.690Z,6.68
2023-02-16T22:07:37.383Z,6.63
2023-02-16T22:10:04.103Z,6.79
2023-02-16T22:12:30.774Z,6.69
2023-02-16T22:14:57.404Z,6.77
2023-02-16T22:17:24.051Z,6.80
2023-02-16T22:19:50.746Z,6.62
2023-02-16T22:22:17.408Z,6.82
2023-02-16T22:24:44.074Z,6.86
2023-02-16T22:27:10.701Z,6.89
2023-02-16T22:29:37.364Z,6.91
2023-02-16T22:32:04.061Z,6.82
2023-02-16T22:34:30.720Z,6.89
2023-02-16T22:36:57.362Z,6.85
2023-02-16T22:39:24.034Z,6.97
2023-02-16T22:41:50.697Z,6.78
2023-02-16T22:44:17.373Z,6.69
2023-02-16T22:46:44.046Z,6.66
2023-02-16T22:49:10.685Z,6.68
2023-02-16T22:51:37.415Z,6.82
2023-02-16T22:54:04.090Z,6.98
2023-02-16T22:56:30.761Z,7.05
2023-02-16T22:58:57.945Z,7.19
2023-02-16T23:01:24.743Z,7.16
2023-02-16T23:03:51.437Z,7.20
2023-02-16T23:06:18.120Z,7.18
2023-02-16T23:08:44.808Z,7.09
2023-02-16T23:11:11.410Z,7.15
2023-02-16T23:13:38.157Z,7.12
2023-02-16T23:16:05.115Z,7.10
2023-02-16T23:18:31.961Z,6.95
2023-02-16T23:20:58.635Z,7.03
2023-02-16T23:23:25.282Z,6.88
2023-02-16T23:25:52.402Z,7.02
2023-02-16T23:28:20.087Z,6.86
2023-02-16T23:30:46.726Z,6.87
2023-02-16T23:33:13.356Z,6.80
2023-02-16T23:35:39.985Z,6.74
2023-02-16T23:38:06.663Z,6.75
2023-02-16T23:40:33.316Z,6.88
2023-02-16T23:43:00.007Z,6.84
2023-02-16T23:45:26.645Z,6.83
2023-02-16T23:47:53.319Z,6.80
2023-02-16T23:50:19.923Z,6.87
2023-02-16T23:52:46.582Z,6.77
2023-02-16T23:55:13.274Z,6.23
2023-02-16T23:57:39.966Z,6.33
